createdAt,value
2022-12-13T00:01:27.595Z,71.22
2022-12-13T00:03:55.972Z,70.18
2022-12-13T00:06:22.844Z,66.70
2022-12-13T00:08:49.646Z,64.82
2022-12-13T00:11:16.979Z,69.88
2022-12-13T00:13:44.122Z,65.63
2022-12-13T00:16:13.577Z,71.60
2022-12-13T00:18:40.619Z,74.05
2022-12-13T00:21:09.778Z,70.78
2022-12-13T00:23:36.576Z,70.68
2022-12-13T00:26:07.750Z,68.97
2022-12-13T00:28:34.531Z,65.40
2022-12-13T00:31:27.034Z,61.88
2022-12-13T00:33:49.405Z,63.35
2022-12-13T00:36:16.940Z,72.00
2022-12-13T00:38:44.340Z,64.45
2022-12-13T00:41:19.324Z,66.07
2022-12-13T00:43:46.425Z,72.22
2022-12-13T00:46:18.459Z,68.90
2022-12-13T00:48:50.478Z,70.68
2022-12-13T00:51:17.679Z,73.93
2022-12-13T00:53:44.658Z,67.85
2022-12-13T00:56:13.344Z,67.75
2022-12-13T00:58:40.942Z,62.83
2022-12-13T01:01:13.640Z,68.28
2022-12-13T01:03:41.741Z,68.80
2022-12-13T01:06:16.251Z,66.70
2022-12-13T01:08:44.656Z,77.13
2022-12-13T01:11:12.305Z,66.45
2022-12-13T01:13:39.911Z,70.50
2022-12-13T01:16:08.838Z,69.28
2022-12-13T01:18:36.051Z,66.30
2022-12-13T01:21:22.213Z,65.43
2022-12-13T01:23:49.361Z,74.88
2022-12-13T01:26:19.641Z,75.13
2022-12-13T01:28:47.015Z,73.93
2022-12-13T01:31:16.451Z,71.55
2022-12-13T01:33:43.685Z,69.57
2022-12-13T01:36:27.089Z,65.82
2022-12-13T01:38:59.253Z,74.78
2022-12-13T01:41:28.206Z,68.22
2022-12-13T01:44:03.094Z,72.93
2022-12-13T01:46:32.310Z,72.80
2022-12-13T01:49:19.939Z,70.30
2022-12-13T01:51:59.328Z,71.20
2022-12-13T01:54:33.436Z,65.47
2022-12-13T01:57:02.536Z,73.75
2022-12-13T01:59:29.975Z,69.68
2022-12-13T02:02:01.122Z,81.32
2022-12-13T02:04:54.134Z,76.53
2022-12-13T02:07:26.422Z,78.68
2022-12-13T02:09:57.467Z,76.00
2022-12-13T02:12:30.643Z,84.75
2022-12-13T02:15:03.660Z,81.32
2022-12-13T02:18:19.531Z,75.72
2022-12-13T02:21:19.262Z,78.57
2022-12-13T02:24:16.946Z,80.13
2022-12-13T02:27:15.222Z,74.18
2022-12-13T02:30:22.031Z,84.13
2022-12-13T02:33:27.389Z,84.13
2022-12-13T02:36:08.717Z,84.28
2022-12-13T02:38:56.793Z,81.95
2022-12-13T02:41:46.463Z,79.65
2022-12-13T02:44:34.594Z,82.25
2022-12-13T02:47:22.493Z,88.80
2022-12-13T02:49:52.693Z,79.55
2022-12-13T02:52:22.958Z,84.05
2022-12-13T02:54:49.850Z,95.28
2022-12-13T02:57:34.851Z,87.13
2022-12-13T03:00:09.633Z,88.03
2022-12-13T03:03:01.871Z,91.15
2022-12-13T03:05:58.086Z,84.95
2022-12-13T03:08:38.135Z,79.03
2022-12-13T03:11:11.590Z,87.57
2022-12-13T03:13:58.115Z,86.88
2022-12-13T03:16:30.151Z,84.10
2022-12-13T03:19:02.840Z,88.65
2022-12-13T03:21:30.404Z,80.95
2022-12-13T03:23:57.123Z,85.85
2022-12-13T03:26:26.637Z,92.43
2022-12-13T03:28:54.061Z,86.00
2022-12-13T03:31:21.094Z,83.35
2022-12-13T03:33:48.136Z,96.78
2022-12-13T03:36:16.612Z,91.57
2022-12-13T03:38:43.592Z,95.15
2022-12-13T03:41:13.015Z,88.97
2022-12-13T03:43:40.508Z,98.10
2022-12-13T03:46:08.541Z,101.57
2022-12-13T03:48:35.504Z,88.72
2022-12-13T03:51:02.935Z,110.38
2022-12-13T03:53:33.361Z,98.13
2022-12-13T03:56:06.033Z,99.70
2022-12-13T03:58:35.250Z,99.10
2022-12-13T04:01:05.050Z,107.40
2022-12-13T04:03:31.761Z,102.57
2022-12-13T04:05:58.496Z,101.65
2022-12-13T04:08:25.312Z,102.43
2022-12-13T04:10:52.048Z,122.00
2022-12-13T04:13:34.130Z,123.47
2022-12-13T04:16:02.427Z,128.25
2022-12-13T04:18:29.467Z,128.60
2022-12-13T04:20:57.390Z,126.75
2022-12-13T04:23:24.442Z,125.05
2022-12-13T04:25:51.532Z,118.22
2022-12-13T04:28:22.028Z,118.32
2022-12-13T04:30:54.133Z,106.82
2022-12-13T04:33:24.319Z,131.50
2022-12-13T04:35:51.582Z,122.30
2022-12-13T04:38:18.928Z,111.32
2022-12-13T04:40:46.159Z,126.45
2022-12-13T04:43:12.927Z,110.72
2022-12-13T04:45:39.697Z,112.47
2022-12-13T04:48:07.002Z,114.85
2022-12-13T04:50:34.329Z,111.88
2022-12-13T04:53:01.138Z,102.75
2022-12-13T04:55:27.954Z,108.18
2022-12-13T04:57:54.784Z,101.05
2022-12-13T05:00:24.389Z,109.07
2022-12-13T05:02:51.316Z,112.32
2022-12-13T05:05:18.710Z,104.97
2022-12-13T05:07:45.884Z,105.55
2022-12-13T05:10:13.972Z,101.10
2022-12-13T05:12:59.954Z,99.00
2022-12-13T05:15:28.274Z,102.07
2022-12-13T05:17:55.113Z,100.40
2022-12-13T05:20:22.285Z,92.03
2022-12-13T05:22:49.040Z,99.63
2022-12-13T05:25:15.970Z,99.78
2022-12-13T05:27:42.902Z,97.03
2022-12-13T05:30:10.237Z,103.57
2022-12-13T05:32:43.611Z,99.72
2022-12-13T05:35:13.657Z,99.47
2022-12-13T05:37:40.849Z,94.53
2022-12-13T05:40:09.912Z,93.30
2022-12-13T05:42:39.774Z,97.78
2022-12-13T05:45:08.006Z,103.68
2022-12-13T05:47:34.748Z,98.32
2022-12-13T05:50:01.581Z,94.03
2022-12-13T05:52:30.351Z,102.38
2022-12-13T05:55:01.014Z,98.00
2022-12-13T05:57:28.409Z,103.50
2022-12-13T05:59:55.641Z,87.93
2022-12-13T06:02:23.118Z,88.65
2022-12-13T06:04:50.284Z,100.68
2022-12-13T06:07:17.092Z,87.13
2022-12-13T06:09:43.953Z,94.55
2022-12-13T06:12:31.199Z,88.35
2022-12-13T06:15:01.126Z,90.40
2022-12-13T06:17:36.435Z,84.57
2022-12-13T06:20:23.744Z,94.53
2022-12-13T06:22:52.618Z,98.88
2022-12-13T06:25:31.322Z,89.63
2022-12-13T06:28:02.316Z,92.20
2022-12-13T06:30:32.304Z,95.50
2022-12-13T06:32:59.126Z,93.35
2022-12-13T06:35:29.135Z,96.10
2022-12-13T06:38:01.499Z,91.97
2022-12-13T06:40:30.252Z,89.28
2022-12-13T06:42:57.659Z,97.35
2022-12-13T06:45:24.818Z,92.15
2022-12-13T06:47:51.602Z,92.75
2022-12-13T06:50:18.497Z,99.68
2022-12-13T06:52:46.889Z,91.07
2022-12-13T06:55:14.042Z,89.93
2022-12-13T06:57:41.631Z,88.55
2022-12-13T07:00:09.926Z,86.30
2022-12-13T07:02:38.323Z,88.30
2022-12-13T07:05:05.760Z,94.05
2022-12-13T07:07:32.694Z,95.55
2022-12-13T07:09:59.535Z,92.57
2022-12-13T07:12:26.584Z,89.43
2022-12-13T07:14:53.460Z,90.05
2022-12-13T07:17:31.952Z,93.45
2022-12-13T07:20:13.527Z,85.85
2022-12-13T07:22:47.251Z,91.80
2022-12-13T07:25:26.699Z,97.90
2022-12-13T07:28:01.922Z,88.90
2022-12-13T07:30:30.078Z,91.03
2022-12-13T07:32:56.855Z,89.13
2022-12-13T07:35:23.597Z,83.38
2022-12-13T07:37:50.419Z,89.65
2022-12-13T07:40:17.779Z,89.93
2022-12-13T07:42:52.125Z,90.65
2022-12-13T07:45:19.416Z,93.50
2022-12-13T07:47:46.153Z,90.57
2022-12-13T07:50:24.846Z,85.60
2022-12-13T07:52:53.540Z,87.18
2022-12-13T07:55:23.215Z,89.07
2022-12-13T07:58:11.261Z,84.80
2022-12-13T08:00:39.394Z,80.60
2022-12-13T08:03:06.797Z,90.05
2022-12-13T08:05:38.296Z,85.85
2022-12-13T08:08:08.314Z,87.13
2022-12-13T08:10:35.614Z,78.72
2022-12-13T08:13:03.622Z,84.07
2022-12-13T08:15:31.114Z,88.10
2022-12-13T08:17:58.244Z,82.20
2022-12-13T08:20:25.006Z,99.35
2022-12-13T08:23:01.977Z,87.75
2022-12-13T08:25:30.567Z,88.05
2022-12-13T08:28:01.409Z,82.53
2022-12-13T08:30:30.200Z,79.68
2022-12-13T08:32:57.641Z,81.70
2022-12-13T08:35:33.750Z,90.40
2022-12-13T08:38:01.192Z,90.53
2022-12-13T08:40:28.094Z,88.90
2022-12-13T08:42:57.834Z,78.32
2022-12-13T08:45:25.161Z,86.40
2022-12-13T08:47:52.026Z,80.78
2022-12-13T08:50:18.997Z,82.80
2022-12-13T08:52:46.045Z,83.43
2022-12-13T08:55:15.161Z,76.85
2022-12-13T08:57:43.252Z,76.30
2022-12-13T09:00:16.097Z,76.80
2022-12-13T09:02:42.968Z,75.13
2022-12-13T09:05:11.375Z,79.35
2022-12-13T09:07:41.265Z,73.00
2022-12-13T09:10:26.329Z,71.55
2022-12-13T09:13:01.687Z,69.70
2022-12-13T09:15:34.657Z,70.47
2022-12-13T09:18:04.489Z,66.18
2022-12-13T09:20:40.596Z,70.63
2022-12-13T09:23:14.220Z,69.35
2022-12-13T09:25:56.296Z,66.50
2022-12-13T09:28:33.784Z,64.38
2022-12-13T09:31:00.825Z,61.85
2022-12-13T09:33:29.841Z,63.80
2022-12-13T09:35:58.305Z,62.95
2022-12-13T09:38:35.998Z,66.63
2022-12-13T09:41:11.984Z,59.03
2022-12-13T09:43:49.975Z,56.17
2022-12-13T09:46:34.349Z,63.13
2022-12-13T09:49:04.795Z,58.58
2022-12-13T09:51:45.914Z,51.47
2022-12-13T09:54:22.087Z,55.22
2022-12-13T09:56:54.563Z,57.78
2022-12-13T09:59:32.880Z,50.88
2022-12-13T10:02:17.825Z,50.70
2022-12-13T10:04:45.282Z,53.13
2022-12-13T10:07:23.247Z,51.70
2022-12-13T10:10:01.427Z,55.00
2022-12-13T10:12:29.304Z,49.83
2022-12-13T10:15:39.919Z,52.85
2022-12-13T10:18:38.683Z,56.42
2022-12-13T10:21:13.069Z,52.95
2022-12-13T10:24:07.245Z,50.58
2022-12-13T10:26:26.726Z,49.58
2022-12-13T10:29:04.924Z,48.95
2022-12-13T10:31:49.364Z,54.55
2022-12-13T10:34:39.152Z,51.97
2022-12-13T10:37:28.582Z,45.97
2022-12-13T10:39:55.437Z,52.13
2022-12-13T10:42:25.036Z,45.45
2022-12-13T10:45:15.222Z,47.55
2022-12-13T10:47:44.799Z,49.45
2022-12-13T10:50:27.377Z,48.03
2022-12-13T10:52:55.760Z,46.40
2022-12-13T10:55:33.890Z,45.85
2022-12-13T10:58:15.244Z,45.70
2022-12-13T11:00:47.211Z,41.53
2022-12-13T11:03:34.326Z,47.28
2022-12-13T11:06:15.850Z,43.10
2022-12-13T11:08:42.759Z,41.38
2022-12-13T11:11:12.332Z,39.30
2022-12-13T11:13:53.732Z,37.78
2022-12-13T11:16:39.474Z,35.08
2022-12-13T11:19:18.125Z,38.60
2022-12-13T11:21:49.513Z,45.03
2022-12-13T11:24:30.587Z,44.30
2022-12-13T11:27:20.456Z,42.45
2022-12-13T11:29:58.544Z,32.72
2022-12-13T11:32:44.750Z,33.58
2022-12-13T11:35:33.173Z,39.25
2022-12-13T11:38:34.267Z,34.22
2022-12-13T11:41:32.121Z,34.00
2022-12-13T11:44:08.601Z,34.00
2022-12-13T11:46:40.491Z,32.85
2022-12-13T11:49:18.171Z,35.93
2022-12-13T11:51:56.046Z,32.42
2022-12-13T11:54:55.321Z,35.65
2022-12-13T11:57:41.560Z,31.95
2022-12-13T12:00:33.546Z,33.42
2022-12-13T12:05:56.158Z,33.45
2022-12-13T12:09:07.697Z,29.70
2022-12-13T12:11:42.404Z,30.40
2022-12-13T12:14:31.056Z,32.30
2022-12-13T12:16:59.217Z,31.17
2022-12-13T12:19:35.826Z,34.10
2022-12-13T12:22:15.548Z,37.40
2022-12-13T12:24:48.637Z,34.58
2022-12-13T12:30:23.292Z,33.83
2022-12-13T12:33:08.274Z,35.10
2022-12-13T12:35:45.708Z,33.05
2022-12-13T12:38:34.345Z,34.67
2022-12-13T12:41:45.131Z,38.65
2022-12-13T12:44:38.530Z,34.17
2022-12-13T12:50:29.588Z,34.45
2022-12-13T12:53:11.596Z,37.75
2022-12-13T12:55:59.743Z,34.30
2022-12-13T12:58:40.263Z,30.95
2022-12-13T13:01:43.624Z,34.70
2022-12-13T13:04:14.217Z,35.13
2022-12-13T13:07:04.103Z,34.47
2022-12-13T13:09:32.021Z,36.90
2022-12-13T13:12:02.634Z,35.00
2022-12-13T13:14:49.378Z,38.20
2022-12-13T13:17:16.091Z,38.17
2022-12-13T13:20:00.034Z,35.67
2022-12-13T13:22:44.263Z,45.20
2022-12-13T13:25:43.971Z,40.28
2022-12-13T13:28:22.591Z,37.45
2022-12-13T13:31:09.102Z,33.25
2022-12-13T13:33:57.432Z,38.17
2022-12-13T13:36:39.503Z,37.90
2022-12-13T13:39:16.052Z,36.73
2022-12-13T13:42:13.940Z,33.72
2022-12-13T13:44:46.427Z,33.95
2022-12-13T13:47:24.971Z,37.05
2022-12-13T13:50:08.750Z,36.58
2022-12-13T13:52:44.704Z,36.15
2022-12-13T13:55:29.533Z,35.00
2022-12-13T13:58:24.463Z,39.22
2022-12-13T14:01:18.530Z,40.53
2022-12-13T14:04:12.692Z,33.47
2022-12-13T14:06:48.287Z,36.17
2022-12-13T14:09:45.496Z,36.40
2022-12-13T14:12:49.788Z,41.58
2022-12-13T14:15:49.573Z,37.10
2022-12-13T14:18:32.352Z,33.58
2022-12-13T14:21:03.442Z,46.15
2022-12-13T14:23:55.094Z,38.40
2022-12-13T14:26:36.798Z,42.95
2022-12-13T14:29:10.644Z,39.38
2022-12-13T14:31:47.049Z,40.65
2022-12-13T14:34:26.000Z,36.70
2022-12-13T14:36:56.176Z,40.78
2022-12-13T14:39:25.994Z,36.50
2022-12-13T14:41:57.156Z,35.28
2022-12-13T14:44:30.446Z,38.33
2022-12-13T14:47:00.877Z,37.47
2022-12-13T14:49:31.002Z,53.65
2022-12-13T14:52:03.680Z,37.80
2022-12-13T14:57:18.166Z,48.67
2022-12-13T14:59:50.264Z,40.58
2022-12-13T15:02:30.881Z,42.20
2022-12-13T15:05:01.323Z,40.03
2022-12-13T15:07:36.367Z,37.80
2022-12-13T15:10:15.352Z,39.45
2022-12-13T15:12:44.332Z,37.15
2022-12-13T15:15:23.146Z,36.08
2022-12-13T15:18:04.095Z,38.35
2022-12-13T15:20:32.814Z,37.05
2022-12-13T15:23:06.093Z,41.15
2022-12-13T15:25:34.947Z,42.40
2022-12-13T15:28:01.885Z,36.75
2022-12-13T15:30:32.861Z,39.58
2022-12-13T15:33:34.170Z,39.17
2022-12-13T15:36:03.438Z,32.67
2022-12-13T15:38:30.759Z,39.60
2022-12-13T15:40:57.937Z,40.85
2022-12-13T15:43:51.424Z,38.88
2022-12-13T15:46:33.167Z,35.53
2022-12-13T15:49:02.141Z,37.53
2022-12-13T15:51:30.603Z,37.30
2022-12-13T15:54:18.264Z,35.03
2022-12-13T15:57:14.402Z,40.10
2022-12-13T15:59:42.692Z,38.58
2022-12-13T16:02:18.357Z,39.33
2022-12-13T16:04:45.450Z,31.95
2022-12-13T16:07:35.668Z,41.63
2022-12-13T16:10:03.042Z,38.00
2022-12-13T16:12:40.138Z,41.38
2022-12-13T16:15:29.297Z,39.92
2022-12-13T16:18:14.589Z,40.97
2022-12-13T16:20:43.970Z,36.55
2022-12-13T16:23:10.800Z,37.28
2022-12-13T16:25:53.685Z,38.58
2022-12-13T16:28:20.458Z,41.05
2022-12-13T16:30:52.895Z,42.45
2022-12-13T16:33:29.502Z,36.13
2022-12-13T16:35:56.936Z,42.28
2022-12-13T16:38:26.585Z,45.78
2022-12-13T16:40:56.248Z,38.17
2022-12-13T16:43:32.931Z,41.13
2022-12-13T16:47:12.765Z,43.67
2022-12-13T16:48:51.147Z,36.45
2022-12-13T16:51:18.239Z,34.75
2022-12-13T16:53:45.851Z,37.72
2022-12-13T16:56:16.285Z,34.80
2022-12-13T16:58:49.751Z,43.50
2022-12-13T17:01:22.662Z,37.58
2022-12-13T17:06:23.111Z,46.25
2022-12-13T17:08:49.930Z,41.55
2022-12-13T17:11:18.456Z,37.15
2022-12-13T17:13:47.636Z,33.90
2022-12-13T17:16:15.056Z,32.92
2022-12-13T17:18:42.186Z,38.22
2022-12-13T17:21:10.181Z,33.75
2022-12-13T17:23:37.258Z,38.28
2022-12-13T17:26:06.223Z,33.10
2022-12-13T17:28:33.271Z,44.97
2022-12-13T17:31:13.289Z,44.28
2022-12-13T17:33:40.977Z,43.25
2022-12-13T17:36:09.674Z,39.83
2022-12-13T17:38:37.079Z,47.17
2022-12-13T17:41:04.482Z,41.53
2022-12-13T17:43:35.453Z,39.08
2022-12-13T17:46:05.608Z,37.88
2022-12-13T17:48:39.772Z,34.30
2022-12-13T17:51:09.163Z,38.00
2022-12-13T17:53:36.304Z,40.17
2022-12-13T17:56:06.545Z,38.55
2022-12-13T17:58:34.398Z,49.22
2022-12-13T18:01:14.176Z,39.70
2022-12-13T18:03:41.183Z,43.03
2022-12-13T18:06:08.509Z,43.95
2022-12-13T18:08:42.410Z,41.05
2022-12-13T18:11:33.043Z,43.45
2022-12-13T18:13:56.521Z,41.70
2022-12-13T18:16:30.336Z,36.38
2022-12-13T18:19:00.893Z,41.50
2022-12-13T18:21:27.698Z,32.58
2022-12-13T18:23:56.139Z,35.47
2022-12-13T18:26:24.095Z,37.05
2022-12-13T18:28:51.224Z,35.55
2022-12-13T18:31:22.004Z,33.67
2022-12-13T18:33:50.127Z,33.75
2022-12-13T18:36:17.651Z,35.30
2022-12-13T18:38:45.001Z,38.83
2022-12-13T18:41:15.433Z,36.10
2022-12-13T18:43:43.386Z,40.05
2022-12-13T18:46:11.343Z,35.50
2022-12-13T18:48:38.401Z,37.75
2022-12-13T18:51:07.615Z,35.08
2022-12-13T18:53:35.929Z,36.72
2022-12-13T18:56:10.562Z,32.67
2022-12-13T18:58:43.451Z,36.28
2022-12-13T19:01:11.721Z,36.50
2022-12-13T19:03:39.112Z,34.03
2022-12-13T19:06:07.156Z,36.58
2022-12-13T19:08:36.363Z,34.67
2022-12-13T19:11:03.930Z,35.13
2022-12-13T19:13:32.426Z,35.08
2022-12-13T19:16:06.587Z,38.35
2022-12-13T19:18:34.957Z,35.63
2022-12-13T19:21:02.042Z,30.95
2022-12-13T19:23:29.429Z,67.15
2022-12-13T19:25:56.476Z,37.03
2022-12-13T19:28:23.251Z,40.22
2022-12-13T19:30:50.055Z,36.78
2022-12-13T19:33:17.416Z,33.45
2022-12-13T19:35:46.584Z,41.25
2022-12-13T19:38:13.675Z,45.75
2022-12-13T19:40:42.208Z,36.05
2022-12-13T19:43:10.634Z,37.97
2022-12-13T19:45:37.576Z,37.60
2022-12-13T19:48:04.601Z,38.53
2022-12-13T19:50:31.488Z,41.03
2022-12-13T19:52:58.233Z,36.72
2022-12-13T19:55:25.001Z,41.33
2022-12-13T19:57:51.853Z,41.08
2022-12-13T20:00:18.652Z,37.97
2022-12-13T20:02:45.471Z,33.20
2022-12-13T20:05:12.316Z,34.55
2022-12-13T20:07:39.197Z,37.35
2022-12-13T20:10:06.673Z,37.00
2022-12-13T20:12:38.794Z,35.33
2022-12-13T20:15:08.532Z,36.30
2022-12-13T20:17:36.005Z,31.23
2022-12-13T20:20:04.068Z,38.88
2022-12-13T20:22:32.544Z,38.20
2022-12-13T20:24:59.244Z,32.30
2022-12-13T20:27:26.209Z,34.75
2022-12-13T20:29:53.498Z,35.00
2022-12-13T20:32:21.083Z,32.30
2022-12-13T20:34:51.746Z,33.15
2022-12-13T20:37:22.098Z,33.83
2022-12-13T20:39:49.065Z,42.47
2022-12-13T20:42:15.894Z,32.33
2022-12-13T20:44:42.579Z,33.13
2022-12-13T20:47:09.687Z,32.42
2022-12-13T20:49:36.700Z,31.73
2022-12-13T20:52:03.751Z,33.72
2022-12-13T20:54:30.681Z,33.83
2022-12-13T20:56:57.463Z,33.42
2022-12-13T20:59:24.257Z,35.38
2022-12-13T21:01:51.097Z,29.63
2022-12-13T21:04:18.420Z,32.20
2022-12-13T21:06:45.182Z,31.83
2022-12-13T21:09:12.339Z,32.83
2022-12-13T21:11:44.589Z,28.10
2022-12-13T21:14:21.403Z,29.55
2022-12-13T21:17:00.484Z,33.90
2022-12-13T21:19:40.151Z,30.20
2022-12-13T21:22:07.537Z,32.88
2022-12-13T21:24:34.311Z,30.48
2022-12-13T21:27:01.512Z,30.95
2022-12-13T21:29:28.283Z,29.48
2022-12-13T21:31:55.376Z,28.40
2022-12-13T21:34:22.401Z,27.17
2022-12-13T21:36:52.077Z,30.55
2022-12-13T21:39:22.581Z,29.88
2022-12-13T21:41:49.451Z,29.35
2022-12-13T21:44:17.685Z,27.52
2022-12-13T21:49:31.315Z,30.90
2022-12-13T21:51:58.087Z,27.25
2022-12-13T21:54:24.833Z,25.98
2022-12-13T21:57:10.333Z,31.55
2022-12-13T21:59:37.098Z,28.00
2022-12-13T22:02:16.273Z,29.80
2022-12-13T22:04:47.675Z,29.08
2022-12-13T22:07:38.772Z,28.55
2022-12-13T22:10:07.145Z,32.00
2022-12-13T22:12:39.505Z,25.58
2022-12-13T22:15:09.577Z,27.27
2022-12-13T22:17:37.632Z,32.47
2022-12-13T22:20:22.589Z,30.58
2022-12-13T22:22:49.456Z,31.50
2022-12-13T22:25:16.264Z,27.67
2022-12-13T22:27:43.103Z,27.10
2022-12-13T22:30:10.479Z,27.25
2022-12-13T22:32:37.253Z,27.25
2022-12-13T22:35:04.788Z,27.65
2022-12-13T22:37:32.194Z,30.38
2022-12-13T22:39:59.020Z,26.63
2022-12-13T22:42:25.772Z,26.25
2022-12-13T22:44:52.499Z,26.17
2022-12-13T22:47:19.557Z,25.55
2022-12-13T22:49:48.940Z,24.92
2022-12-13T22:52:16.366Z,25.48
2022-12-13T22:54:43.113Z,24.60
2022-12-13T22:57:09.917Z,27.20
2022-12-13T22:59:36.733Z,22.85
2022-12-13T23:02:03.976Z,28.23
2022-12-13T23:04:31.968Z,25.13
2022-12-13T23:06:59.085Z,25.42
2022-12-13T23:09:25.783Z,27.27
2022-12-13T23:12:11.231Z,23.80
2022-12-13T23:14:37.976Z,24.33
2022-12-13T23:17:04.886Z,25.15
2022-12-13T23:19:53.131Z,24.27
2022-12-13T23:22:21.997Z,22.58
2022-12-13T23:24:49.732Z,22.45
2022-12-13T23:27:16.922Z,24.23
2022-12-13T23:29:43.727Z,23.33
2022-12-13T23:32:11.622Z,25.20
2022-12-13T23:34:38.495Z,20.38
2022-12-13T23:37:05.289Z,24.88
2022-12-13T23:39:32.271Z,21.88
2022-12-13T23:41:59.023Z,23.52
2022-12-13T23:44:25.783Z,25.50
2022-12-13T23:46:52.518Z,22.10
2022-12-13T23:49:19.389Z,22.90
2022-12-13T23:51:46.447Z,21.33
2022-12-13T23:54:16.540Z,23.58
2022-12-13T23:56:43.475Z,22.63
2022-12-13T23:59:10.308Z,25.48
